sensor_id;sensor_type;location;lat;lon;timestamp;P1;durP1;ratioP1;P2;durP2;ratioP2
61840;SDS011;47773;53.174;6.614;2022-08-19T00:00:18;9.60;;;6.25;;
61840;SDS011;47773;53.174;6.614;2022-08-19T00:02:44;12.73;;;6.63;;
61840;SDS011;47773;53.174;6.614;2022-08-19T00:05:11;12.23;;;6.40;;
61840;SDS011;47773;53.174;6.614;2022-08-19T00:07:38;8.27;;;6.10;;
61840;SDS011;47773;53.174;6.614;2022-08-19T00:10:04;11.05;;;5.97;;
61840;SDS011;47773;53.174;6.614;2022-08-19T00:12:31;9.07;;;5.85;;
61840;SDS011;47773;53.174;6.614;2022-08-19T00:14:57;10.85;;;6.78;;
61840;SDS011;47773;53.174;6.614;2022-08-19T00:17:23;13.50;;;6.30;;
61840;SDS011;47773;53.174;6.614;2022-08-19T00:19:48;10.55;;;5.63;;
61840;SDS011;47773;53.174;6.614;2022-08-19T00:22:14;10.60;;;5.45;;
61840;SDS011;47773;53.174;6.614;2022-08-19T00:24:41;11.00;;;6.05;;
61840;SDS011;47773;53.174;6.614;2022-08-19T00:27:08;9.45;;;5.82;;
61840;SDS011;47773;53.174;6.614;2022-08-19T00:29:34;7.90;;;5.43;;
61840;SDS011;47773;53.174;6.614;2022-08-19T00:32:00;11.15;;;6.53;;
61840;SDS011;47773;53.174;6.614;2022-08-19T00:34:25;10.98;;;6.03;;
61840;SDS011;47773;53.174;6.614;2022-08-19T00:36:55;12.05;;;7.22;;
61840;SDS011;47773;53.174;6.614;2022-08-19T00:39:21;11.82;;;6.60;;
61840;SDS011;47773;53.174;6.614;2022-08-19T00:41:47;8.38;;;6.10;;
61840;SDS011;47773;53.174;6.614;2022-08-19T00:44:15;9.48;;;6.00;;
61840;SDS011;47773;53.174;6.614;2022-08-19T00:46:45;11.52;;;6.28;;
61840;SDS011;47773;53.174;6.614;2022-08-19T00:51:45;10.05;;;5.80;;
61840;SDS011;47773;53.174;6.614;2022-08-19T00:54:15;14.90;;;5.90;;
61840;SDS011;47773;53.174;6.614;2022-08-19T00:56:41;13.32;;;6.43;;
61840;SDS011;47773;53.174;6.614;2022-08-19T00:59:07;9.43;;;5.88;;
61840;SDS011;47773;53.174;6.614;2022-08-19T01:01:36;9.40;;;5.78;;
61840;SDS011;47773;53.174;6.614;2022-08-19T01:04:02;11.35;;;6.10;;
61840;SDS011;47773;53.174;6.614;2022-08-19T01:06:28;12.35;;;6.40;;
61840;SDS011;47773;53.174;6.614;2022-08-19T01:08:56;9.48;;;5.55;;
61840;SDS011;47773;53.174;6.614;2022-08-19T01:11:22;8.75;;;5.57;;
61840;SDS011;47773;53.174;6.614;2022-08-19T01:13:47;11.18;;;5.53;;
61840;SDS011;47773;53.174;6.614;2022-08-19T01:16:15;9.05;;;5.90;;
61840;SDS011;47773;53.174;6.614;2022-08-19T01:18:42;9.25;;;5.65;;
61840;SDS011;47773;53.174;6.614;2022-08-19T01:21:12;10.25;;;5.00;;
61840;SDS011;47773;53.174;6.614;2022-08-19T01:23:52;8.18;;;5.10;;
61840;SDS011;47773;53.174;6.614;2022-08-19T01:26:19;8.02;;;5.25;;
61840;SDS011;47773;53.174;6.614;2022-08-19T01:28:47;8.88;;;5.05;;
61840;SDS011;47773;53.174;6.614;2022-08-19T01:31:17;8.02;;;4.97;;
61840;SDS011;47773;53.174;6.614;2022-08-19T01:33:46;10.65;;;5.40;;
61840;SDS011;47773;53.174;6.614;2022-08-19T01:36:14;10.77;;;5.47;;
61840;SDS011;47773;53.174;6.614;2022-08-19T01:38:46;12.15;;;6.00;;
61840;SDS011;47773;53.174;6.614;2022-08-19T01:41:13;11.52;;;6.85;;
61840;SDS011;47773;53.174;6.614;2022-08-19T01:43:39;10.35;;;6.35;;
61840;SDS011;47773;53.174;6.614;2022-08-19T01:46:05;11.40;;;6.95;;
61840;SDS011;47773;53.174;6.614;2022-08-19T01:48:38;12.98;;;7.20;;
61840;SDS011;47773;53.174;6.614;2022-08-19T01:51:05;12.68;;;7.25;;
61840;SDS011;47773;53.174;6.614;2022-08-19T01:53:32;11.52;;;7.53;;
61840;SDS011;47773;53.174;6.614;2022-08-19T01:55:57;10.95;;;6.85;;
61840;SDS011;47773;53.174;6.614;2022-08-19T01:58:24;11.18;;;7.10;;
61840;SDS011;47773;53.174;6.614;2022-08-19T02:01:03;10.48;;;6.65;;
61840;SDS011;47773;53.174;6.614;2022-08-19T02:03:31;12.38;;;7.03;;
61840;SDS011;47773;53.174;6.614;2022-08-19T02:05:58;12.15;;;5.88;;
61840;SDS011;47773;53.174;6.614;2022-08-19T02:08:32;11.45;;;6.32;;
61840;SDS011;47773;53.174;6.614;2022-08-19T02:11:00;12.05;;;7.43;;
61840;SDS011;47773;53.174;6.614;2022-08-19T02:13:26;16.23;;;7.20;;
61840;SDS011;47773;53.174;6.614;2022-08-19T02:15:52;9.43;;;6.18;;
61840;SDS011;47773;53.174;6.614;2022-08-19T02:18:18;9.60;;;6.53;;
61840;SDS011;47773;53.174;6.614;2022-08-19T02:20:44;14.80;;;8.15;;
61840;SDS011;47773;53.174;6.614;2022-08-19T02:23:12;12.25;;;7.28;;
61840;SDS011;47773;53.174;6.614;2022-08-19T02:25:39;12.27;;;7.32;;
61840;SDS011;47773;53.174;6.614;2022-08-19T02:28:05;9.90;;;6.85;;
61840;SDS011;47773;53.174;6.614;2022-08-19T02:30:31;11.57;;;6.95;;
61840;SDS011;47773;53.174;6.614;2022-08-19T02:32:58;10.80;;;6.40;;
61840;SDS011;47773;53.174;6.614;2022-08-19T02:35:31;10.85;;;6.80;;
61840;SDS011;47773;53.174;6.614;2022-08-19T02:40:47;11.13;;;6.30;;
61840;SDS011;47773;53.174;6.614;2022-08-19T02:43:15;15.93;;;7.72;;
61840;SDS011;47773;53.174;6.614;2022-08-19T02:45:41;9.05;;;6.88;;
61840;SDS011;47773;53.174;6.614;2022-08-19T02:48:06;8.48;;;6.72;;
61840;SDS011;47773;53.174;6.614;2022-08-19T02:50:33;14.93;;;6.63;;
61840;SDS011;47773;53.174;6.614;2022-08-19T02:53:05;12.73;;;6.30;;
61840;SDS011;47773;53.174;6.614;2022-08-19T02:55:32;10.73;;;6.60;;
61840;SDS011;47773;53.174;6.614;2022-08-19T02:57:58;10.48;;;6.82;;
61840;SDS011;47773;53.174;6.614;2022-08-19T03:00:24;12.65;;;6.78;;
61840;SDS011;47773;53.174;6.614;2022-08-19T03:02:51;13.80;;;6.95;;
61840;SDS011;47773;53.174;6.614;2022-08-19T03:05:17;9.32;;;6.32;;
61840;SDS011;47773;53.174;6.614;2022-08-19T03:07:43;11.07;;;6.55;;
61840;SDS011;47773;53.174;6.614;2022-08-19T03:10:08;9.60;;;6.35;;
61840;SDS011;47773;53.174;6.614;2022-08-19T03:12:35;12.30;;;7.10;;
61840;SDS011;47773;53.174;6.614;2022-08-19T03:15:02;9.50;;;6.72;;
61840;SDS011;47773;53.174;6.614;2022-08-19T03:17:30;16.85;;;5.90;;
61840;SDS011;47773;53.174;6.614;2022-08-19T03:19:56;10.95;;;6.18;;
61840;SDS011;47773;53.174;6.614;2022-08-19T03:22:22;11.05;;;6.30;;
61840;SDS011;47773;53.174;6.614;2022-08-19T03:24:47;9.50;;;6.35;;
61840;SDS011;47773;53.174;6.614;2022-08-19T03:27:13;8.25;;;6.03;;
61840;SDS011;47773;53.174;6.614;2022-08-19T03:29:39;11.07;;;6.53;;
61840;SDS011;47773;53.174;6.614;2022-08-19T03:32:05;9.82;;;6.30;;
61840;SDS011;47773;53.174;6.614;2022-08-19T03:34:32;8.55;;;6.28;;
61840;SDS011;47773;53.174;6.614;2022-08-19T03:36:59;11.82;;;6.50;;
61840;SDS011;47773;53.174;6.614;2022-08-19T03:39:32;11.23;;;6.97;;
61840;SDS011;47773;53.174;6.614;2022-08-19T03:41:58;14.38;;;6.95;;
61840;SDS011;47773;53.174;6.614;2022-08-19T03:44:27;10.63;;;7.07;;
61840;SDS011;47773;53.174;6.614;2022-08-19T03:46:55;12.20;;;7.00;;
61840;SDS011;47773;53.174;6.614;2022-08-19T03:49:23;13.63;;;6.57;;
61840;SDS011;47773;53.174;6.614;2022-08-19T03:51:52;9.85;;;6.07;;
61840;SDS011;47773;53.174;6.614;2022-08-19T03:54:19;10.82;;;7.15;;
61840;SDS011;47773;53.174;6.614;2022-08-19T03:56:48;11.40;;;7.40;;
61840;SDS011;47773;53.174;6.614;2022-08-19T03:59:20;12.85;;;7.53;;
61840;SDS011;47773;53.174;6.614;2022-08-19T04:01:51;10.52;;;6.70;;
61840;SDS011;47773;53.174;6.614;2022-08-19T04:04:18;8.43;;;6.32;;
61840;SDS011;47773;53.174;6.614;2022-08-19T04:06:44;11.73;;;6.43;;
61840;SDS011;47773;53.174;6.614;2022-08-19T04:09:12;11.15;;;7.05;;
61840;SDS011;47773;53.174;6.614;2022-08-19T04:11:42;9.45;;;6.20;;
61840;SDS011;47773;53.174;6.614;2022-08-19T04:14:11;10.10;;;6.82;;
61840;SDS011;47773;53.174;6.614;2022-08-19T04:16:39;10.75;;;7.13;;
61840;SDS011;47773;53.174;6.614;2022-08-19T04:19:05;9.70;;;6.88;;
61840;SDS011;47773;53.174;6.614;2022-08-19T04:21:31;11.27;;;6.95;;
61840;SDS011;47773;53.174;6.614;2022-08-19T04:23:57;10.80;;;6.55;;
61840;SDS011;47773;53.174;6.614;2022-08-19T04:26:28;11.52;;;6.97;;
61840;SDS011;47773;53.174;6.614;2022-08-19T04:29:00;11.50;;;7.18;;
61840;SDS011;47773;53.174;6.614;2022-08-19T04:31:28;11.32;;;7.13;;
61840;SDS011;47773;53.174;6.614;2022-08-19T04:33:55;12.68;;;8.30;;
61840;SDS011;47773;53.174;6.614;2022-08-19T04:36:27;14.45;;;8.50;;
61840;SDS011;47773;53.174;6.614;2022-08-19T04:38:55;15.55;;;8.90;;
61840;SDS011;47773;53.174;6.614;2022-08-19T04:41:23;14.80;;;9.30;;
61840;SDS011;47773;53.174;6.614;2022-08-19T04:44:08;16.45;;;9.50;;
61840;SDS011;47773;53.174;6.614;2022-08-19T04:46:34;13.25;;;8.35;;
61840;SDS011;47773;53.174;6.614;2022-08-19T04:49:01;14.35;;;8.95;;
61840;SDS011;47773;53.174;6.614;2022-08-19T04:51:29;14.75;;;8.90;;
61840;SDS011;47773;53.174;6.614;2022-08-19T04:53:56;15.23;;;8.88;;
61840;SDS011;47773;53.174;6.614;2022-08-19T04:56:21;14.68;;;8.88;;
61840;SDS011;47773;53.174;6.614;2022-08-19T04:58:50;12.90;;;8.75;;
61840;SDS011;47773;53.174;6.614;2022-08-19T05:01:18;14.20;;;9.38;;
61840;SDS011;47773;53.174;6.614;2022-08-19T05:03:46;15.75;;;8.68;;
61840;SDS011;47773;53.174;6.614;2022-08-19T05:06:13;12.88;;;8.77;;
61840;SDS011;47773;53.174;6.614;2022-08-19T05:08:41;14.35;;;9.60;;
61840;SDS011;47773;53.174;6.614;2022-08-19T05:11:27;15.52;;;9.27;;
61840;SDS011;47773;53.174;6.614;2022-08-19T05:13:56;13.30;;;9.52;;
61840;SDS011;47773;53.174;6.614;2022-08-19T05:16:23;14.38;;;9.05;;
61840;SDS011;47773;53.174;6.614;2022-08-19T05:18:50;16.45;;;9.15;;
61840;SDS011;47773;53.174;6.614;2022-08-19T05:21:35;18.80;;;9.65;;
61840;SDS011;47773;53.174;6.614;2022-08-19T05:24:21;15.52;;;8.85;;
61840;SDS011;47773;53.174;6.614;2022-08-19T05:26:49;20.38;;;9.80;;
61840;SDS011;47773;53.174;6.614;2022-08-19T05:29:18;16.50;;;8.93;;
61840;SDS011;47773;53.174;6.614;2022-08-19T05:31:45;15.02;;;9.73;;
61840;SDS011;47773;53.174;6.614;2022-08-19T05:34:12;17.15;;;9.93;;
61840;SDS011;47773;53.174;6.614;2022-08-19T05:36:39;14.02;;;9.48;;
61840;SDS011;47773;53.174;6.614;2022-08-19T05:39:07;15.95;;;9.57;;
61840;SDS011;47773;53.174;6.614;2022-08-19T05:41:35;16.98;;;10.15;;
61840;SDS011;47773;53.174;6.614;2022-08-19T05:44:01;17.60;;;10.48;;
61840;SDS011;47773;53.174;6.614;2022-08-19T05:46:31;17.15;;;10.07;;
61840;SDS011;47773;53.174;6.614;2022-08-19T05:48:57;16.52;;;10.20;;
61840;SDS011;47773;53.174;6.614;2022-08-19T05:51:23;19.38;;;10.20;;
61840;SDS011;47773;53.174;6.614;2022-08-19T05:53:50;17.67;;;9.93;;
61840;SDS011;47773;53.174;6.614;2022-08-19T05:56:16;17.83;;;10.07;;
61840;SDS011;47773;53.174;6.614;2022-08-19T05:58:43;17.75;;;9.63;;
61840;SDS011;47773;53.174;6.614;2022-08-19T06:01:10;18.40;;;9.73;;
61840;SDS011;47773;53.174;6.614;2022-08-19T06:03:38;18.67;;;10.63;;
61840;SDS011;47773;53.174;6.614;2022-08-19T06:06:04;14.75;;;9.10;;
61840;SDS011;47773;53.174;6.614;2022-08-19T06:08:33;16.75;;;9.70;;
61840;SDS011;47773;53.174;6.614;2022-08-19T06:11:11;18.20;;;9.75;;
61840;SDS011;47773;53.174;6.614;2022-08-19T06:13:43;16.33;;;9.68;;
61840;SDS011;47773;53.174;6.614;2022-08-19T06:16:14;16.20;;;9.48;;
61840;SDS011;47773;53.174;6.614;2022-08-19T06:18:45;15.30;;;9.63;;
61840;SDS011;47773;53.174;6.614;2022-08-19T06:21:11;13.52;;;8.93;;
61840;SDS011;47773;53.174;6.614;2022-08-19T06:23:37;16.95;;;9.20;;
61840;SDS011;47773;53.174;6.614;2022-08-19T06:26:04;13.10;;;8.88;;
61840;SDS011;47773;53.174;6.614;2022-08-19T06:28:30;11.35;;;8.45;;
61840;SDS011;47773;53.174;6.614;2022-08-19T06:30:55;15.30;;;8.23;;
61840;SDS011;47773;53.174;6.614;2022-08-19T06:33:21;18.15;;;8.30;;
61840;SDS011;47773;53.174;6.614;2022-08-19T06:35:46;13.48;;;8.32;;
61840;SDS011;47773;53.174;6.614;2022-08-19T06:38:12;16.02;;;8.18;;
61840;SDS011;47773;53.174;6.614;2022-08-19T06:40:37;13.68;;;8.45;;
61840;SDS011;47773;53.174;6.614;2022-08-19T06:43:03;15.05;;;8.75;;
61840;SDS011;47773;53.174;6.614;2022-08-19T06:45:29;14.20;;;9.20;;
61840;SDS011;47773;53.174;6.614;2022-08-19T06:47:55;13.63;;;8.25;;
61840;SDS011;47773;53.174;6.614;2022-08-19T06:50:22;16.17;;;8.20;;
61840;SDS011;47773;53.174;6.614;2022-08-19T06:52:48;14.85;;;8.82;;
61840;SDS011;47773;53.174;6.614;2022-08-19T06:55:14;12.13;;;7.80;;
61840;SDS011;47773;53.174;6.614;2022-08-19T06:57:40;13.90;;;8.32;;
61840;SDS011;47773;53.174;6.614;2022-08-19T07:00:07;15.75;;;8.57;;
61840;SDS011;47773;53.174;6.614;2022-08-19T07:02:40;13.57;;;8.02;;
61840;SDS011;47773;53.174;6.614;2022-08-19T07:05:07;13.80;;;7.63;;
61840;SDS011;47773;53.174;6.614;2022-08-19T07:07:33;22.58;;;8.35;;
61840;SDS011;47773;53.174;6.614;2022-08-19T07:09:59;10.10;;;6.95;;
61840;SDS011;47773;53.174;6.614;2022-08-19T07:12:26;13.50;;;7.07;;
61840;SDS011;47773;53.174;6.614;2022-08-19T07:14:59;12.65;;;6.78;;
61840;SDS011;47773;53.174;6.614;2022-08-19T07:17:26;16.33;;;7.53;;
61840;SDS011;47773;53.174;6.614;2022-08-19T07:19:56;13.80;;;7.85;;
61840;SDS011;47773;53.174;6.614;2022-08-19T07:22:21;11.88;;;7.28;;
61840;SDS011;47773;53.174;6.614;2022-08-19T07:24:47;14.63;;;7.18;;
61840;SDS011;47773;53.174;6.614;2022-08-19T07:27:13;12.40;;;7.18;;
61840;SDS011;47773;53.174;6.614;2022-08-19T07:29:39;11.13;;;7.00;;
61840;SDS011;47773;53.174;6.614;2022-08-19T07:32:06;10.10;;;7.00;;
61840;SDS011;47773;53.174;6.614;2022-08-19T07:34:32;12.18;;;7.20;;
61840;SDS011;47773;53.174;6.614;2022-08-19T07:37:02;12.80;;;6.35;;
61840;SDS011;47773;53.174;6.614;2022-08-19T07:39:30;12.02;;;7.40;;
61840;SDS011;47773;53.174;6.614;2022-08-19T07:41:58;11.70;;;8.02;;
61840;SDS011;47773;53.174;6.614;2022-08-19T07:44:25;13.07;;;7.28;;
61840;SDS011;47773;53.174;6.614;2022-08-19T07:46:53;16.10;;;7.53;;
61840;SDS011;47773;53.174;6.614;2022-08-19T07:49:21;11.35;;;6.50;;
61840;SDS011;47773;53.174;6.614;2022-08-19T07:52:21;15.05;;;7.72;;
61840;SDS011;47773;53.174;6.614;2022-08-19T07:54:40;12.52;;;7.30;;
61840;SDS011;47773;53.174;6.614;2022-08-19T07:57:06;9.05;;;6.78;;
61840;SDS011;47773;53.174;6.614;2022-08-19T07:59:32;12.07;;;6.85;;
61840;SDS011;47773;53.174;6.614;2022-08-19T08:01:58;12.18;;;5.78;;
61840;SDS011;47773;53.174;6.614;2022-08-19T08:04:25;10.60;;;6.07;;
61840;SDS011;47773;53.174;6.614;2022-08-19T08:07:10;13.73;;;6.82;;
61840;SDS011;47773;53.174;6.614;2022-08-19T08:09:54;11.00;;;6.38;;
61840;SDS011;47773;53.174;6.614;2022-08-19T08:12:21;9.38;;;6.80;;
61840;SDS011;47773;53.174;6.614;2022-08-19T08:14:53;10.90;;;6.30;;
61840;SDS011;47773;53.174;6.614;2022-08-19T08:17:22;10.95;;;6.25;;
61840;SDS011;47773;53.174;6.614;2022-08-19T08:19:50;12.88;;;6.05;;
61840;SDS011;47773;53.174;6.614;2022-08-19T08:22:17;10.57;;;6.70;;
61840;SDS011;47773;53.174;6.614;2022-08-19T08:25:03;13.52;;;7.13;;
61840;SDS011;47773;53.174;6.614;2022-08-19T08:27:38;9.55;;;5.60;;
61840;SDS011;47773;53.174;6.614;2022-08-19T08:30:09;9.90;;;5.60;;
61840;SDS011;47773;53.174;6.614;2022-08-19T08:32:44;9.52;;;5.45;;
61840;SDS011;47773;53.174;6.614;2022-08-19T08:35:11;15.15;;;5.65;;
61840;SDS011;47773;53.174;6.614;2022-08-19T08:37:39;8.73;;;5.45;;
61840;SDS011;47773;53.174;6.614;2022-08-19T08:40:07;11.25;;;5.18;;
61840;SDS011;47773;53.174;6.614;2022-08-19T08:45:29;12.98;;;6.45;;
61840;SDS011;47773;53.174;6.614;2022-08-19T08:47:56;7.47;;;4.38;;
61840;SDS011;47773;53.174;6.614;2022-08-19T08:50:34;9.68;;;5.13;;
61840;SDS011;47773;53.174;6.614;2022-08-19T08:53:06;9.35;;;6.22;;
61840;SDS011;47773;53.174;6.614;2022-08-19T08:55:33;12.73;;;7.05;;
61840;SDS011;47773;53.174;6.614;2022-08-19T08:58:06;10.02;;;6.38;;
61840;SDS011;47773;53.174;6.614;2022-08-19T09:00:39;11.57;;;5.68;;
61840;SDS011;47773;53.174;6.614;2022-08-19T09:03:29;9.98;;;5.13;;
61840;SDS011;47773;53.174;6.614;2022-08-19T09:16:41;13.63;;;8.05;;
61840;SDS011;47773;53.174;6.614;2022-08-19T09:19:07;13.15;;;5.93;;
61840;SDS011;47773;53.174;6.614;2022-08-19T09:21:35;11.85;;;7.10;;
61840;SDS011;47773;53.174;6.614;2022-08-19T09:24:01;11.45;;;5.70;;
61840;SDS011;47773;53.174;6.614;2022-08-19T09:26:28;9.05;;;5.00;;
61840;SDS011;47773;53.174;6.614;2022-08-19T09:28:55;14.35;;;5.88;;
61840;SDS011;47773;53.174;6.614;2022-08-19T09:31:24;7.80;;;5.32;;
61840;SDS011;47773;53.174;6.614;2022-08-19T09:33:52;10.80;;;6.75;;
61840;SDS011;47773;53.174;6.614;2022-08-19T09:36:22;11.68;;;6.78;;
61840;SDS011;47773;53.174;6.614;2022-08-19T09:38:49;9.75;;;6.20;;
61840;SDS011;47773;53.174;6.614;2022-08-19T09:41:17;11.48;;;7.20;;
61840;SDS011;47773;53.174;6.614;2022-08-19T09:43:47;12.90;;;6.97;;
61840;SDS011;47773;53.174;6.614;2022-08-19T09:46:17;14.52;;;8.05;;
61840;SDS011;47773;53.174;6.614;2022-08-19T09:48:45;10.48;;;7.38;;
61840;SDS011;47773;53.174;6.614;2022-08-19T09:51:20;12.25;;;6.60;;
61840;SDS011;47773;53.174;6.614;2022-08-19T09:53:47;8.60;;;6.88;;
61840;SDS011;47773;53.174;6.614;2022-08-19T09:56:22;12.23;;;5.50;;
61840;SDS011;47773;53.174;6.614;2022-08-19T09:58:48;10.65;;;7.53;;
61840;SDS011;47773;53.174;6.614;2022-08-19T10:01:18;11.45;;;8.35;;
61840;SDS011;47773;53.174;6.614;2022-08-19T10:06:12;11.23;;;7.82;;
61840;SDS011;47773;53.174;6.614;2022-08-19T10:08:38;14.25;;;8.80;;
61840;SDS011;47773;53.174;6.614;2022-08-19T10:11:05;15.95;;;9.30;;
61840;SDS011;47773;53.174;6.614;2022-08-19T10:13:31;14.20;;;8.75;;
61840;SDS011;47773;53.174;6.614;2022-08-19T10:16:07;13.18;;;9.00;;
61840;SDS011;47773;53.174;6.614;2022-08-19T10:18:35;10.73;;;8.50;;
61840;SDS011;47773;53.174;6.614;2022-08-19T10:21:06;13.27;;;8.80;;
61840;SDS011;47773;53.174;6.614;2022-08-19T10:23:54;13.35;;;9.77;;
61840;SDS011;47773;53.174;6.614;2022-08-19T10:26:27;12.93;;;9.35;;
61840;SDS011;47773;53.174;6.614;2022-08-19T10:28:55;15.23;;;9.77;;
61840;SDS011;47773;53.174;6.614;2022-08-19T10:31:26;13.48;;;7.80;;
61840;SDS011;47773;53.174;6.614;2022-08-19T10:33:53;9.30;;;6.30;;
61840;SDS011;47773;53.174;6.614;2022-08-19T10:36:23;15.73;;;7.80;;
61840;SDS011;47773;53.174;6.614;2022-08-19T10:38:52;17.83;;;11.00;;
61840;SDS011;47773;53.174;6.614;2022-08-19T10:41:20;9.57;;;7.55;;
61840;SDS011;47773;53.174;6.614;2022-08-19T10:43:50;12.18;;;7.57;;
61840;SDS011;47773;53.174;6.614;2022-08-19T10:46:19;10.32;;;7.90;;
61840;SDS011;47773;53.174;6.614;2022-08-19T10:48:47;11.70;;;8.93;;
61840;SDS011;47773;53.174;6.614;2022-08-19T10:51:13;10.48;;;7.53;;
61840;SDS011;47773;53.174;6.614;2022-08-19T10:53:58;11.27;;;7.57;;
61840;SDS011;47773;53.174;6.614;2022-08-19T10:56:24;12.70;;;9.70;;
61840;SDS011;47773;53.174;6.614;2022-08-19T10:59:10;12.85;;;8.60;;
61840;SDS011;47773;53.174;6.614;2022-08-19T11:01:38;14.95;;;10.52;;
61840;SDS011;47773;53.174;6.614;2022-08-19T11:04:05;13.90;;;9.30;;
61840;SDS011;47773;53.174;6.614;2022-08-19T11:06:35;11.43;;;7.88;;
61840;SDS011;47773;53.174;6.614;2022-08-19T11:09:01;10.32;;;8.38;;
61840;SDS011;47773;53.174;6.614;2022-08-19T11:11:27;15.35;;;9.25;;
61840;SDS011;47773;53.174;6.614;2022-08-19T11:13:53;15.48;;;11.20;;
61840;SDS011;47773;53.174;6.614;2022-08-19T11:16:20;13.32;;;9.38;;
61840;SDS011;47773;53.174;6.614;2022-08-19T11:18:48;14.60;;;9.90;;
61840;SDS011;47773;53.174;6.614;2022-08-19T11:21:23;12.75;;;8.13;;
61840;SDS011;47773;53.174;6.614;2022-08-19T11:23:59;17.33;;;12.63;;
61840;SDS011;47773;53.174;6.614;2022-08-19T11:26:28;17.30;;;12.73;;
61840;SDS011;47773;53.174;6.614;2022-08-19T11:28:56;19.88;;;10.93;;
61840;SDS011;47773;53.174;6.614;2022-08-19T11:31:24;14.00;;;9.88;;
61840;SDS011;47773;53.174;6.614;2022-08-19T11:33:53;14.90;;;9.27;;
61840;SDS011;47773;53.174;6.614;2022-08-19T11:36:21;21.05;;;9.80;;
61840;SDS011;47773;53.174;6.614;2022-08-19T11:38:50;15.68;;;8.25;;
61840;SDS011;47773;53.174;6.614;2022-08-19T11:41:16;12.90;;;7.85;;
61840;SDS011;47773;53.174;6.614;2022-08-19T11:43:43;10.63;;;7.30;;
61840;SDS011;47773;53.174;6.614;2022-08-19T11:46:10;11.93;;;8.00;;
61840;SDS011;47773;53.174;6.614;2022-08-19T11:48:39;9.55;;;7.50;;
61840;SDS011;47773;53.174;6.614;2022-08-19T11:51:06;11.10;;;8.48;;
61840;SDS011;47773;53.174;6.614;2022-08-19T11:53:35;16.20;;;11.90;;
61840;SDS011;47773;53.174;6.614;2022-08-19T11:56:01;17.50;;;11.75;;
61840;SDS011;47773;53.174;6.614;2022-08-19T11:58:28;11.40;;;8.35;;
61840;SDS011;47773;53.174;6.614;2022-08-19T12:00:54;12.95;;;9.50;;
61840;SDS011;47773;53.174;6.614;2022-08-19T12:03:20;14.60;;;10.27;;
61840;SDS011;47773;53.174;6.614;2022-08-19T12:05:53;14.35;;;10.27;;
61840;SDS011;47773;53.174;6.614;2022-08-19T12:08:18;14.25;;;9.43;;
61840;SDS011;47773;53.174;6.614;2022-08-19T12:10:44;15.55;;;11.32;;
61840;SDS011;47773;53.174;6.614;2022-08-19T12:13:11;15.52;;;9.32;;
61840;SDS011;47773;53.174;6.614;2022-08-19T12:15:40;16.23;;;10.23;;
61840;SDS011;47773;53.174;6.614;2022-08-19T12:18:06;14.50;;;10.30;;
61840;SDS011;47773;53.174;6.614;2022-08-19T12:20:34;18.02;;;10.20;;
61840;SDS011;47773;53.174;6.614;2022-08-19T12:23:01;14.02;;;9.63;;
61840;SDS011;47773;53.174;6.614;2022-08-19T12:25:26;12.98;;;9.00;;
61840;SDS011;47773;53.174;6.614;2022-08-19T12:27:52;17.25;;;10.57;;
61840;SDS011;47773;53.174;6.614;2022-08-19T12:30:18;13.75;;;10.70;;
61840;SDS011;47773;53.174;6.614;2022-08-19T12:32:43;16.00;;;10.90;;
61840;SDS011;47773;53.174;6.614;2022-08-19T12:35:09;14.75;;;10.02;;
61840;SDS011;47773;53.174;6.614;2022-08-19T12:37:35;13.82;;;9.30;;
61840;SDS011;47773;53.174;6.614;2022-08-19T12:40:01;15.05;;;10.65;;
61840;SDS011;47773;53.174;6.614;2022-08-19T12:42:28;14.50;;;9.23;;
61840;SDS011;47773;53.174;6.614;2022-08-19T12:44:55;16.25;;;10.60;;
61840;SDS011;47773;53.174;6.614;2022-08-19T12:47:21;14.20;;;10.77;;
61840;SDS011;47773;53.174;6.614;2022-08-19T12:49:46;17.27;;;9.30;;
61840;SDS011;47773;53.174;6.614;2022-08-19T12:52:14;12.43;;;9.00;;
61840;SDS011;47773;53.174;6.614;2022-08-19T12:54:41;15.90;;;9.40;;
61840;SDS011;47773;53.174;6.614;2022-08-19T12:57:07;14.70;;;10.32;;
61840;SDS011;47773;53.174;6.614;2022-08-19T12:59:35;14.00;;;9.60;;
61840;SDS011;47773;53.174;6.614;2022-08-19T13:02:02;11.40;;;7.97;;
61840;SDS011;47773;53.174;6.614;2022-08-19T13:04:32;15.13;;;9.05;;
61840;SDS011;47773;53.174;6.614;2022-08-19T13:07:05;16.90;;;10.18;;
61840;SDS011;47773;53.174;6.614;2022-08-19T13:09:33;13.25;;;9.68;;
61840;SDS011;47773;53.174;6.614;2022-08-19T13:11:59;10.77;;;8.52;;
61840;SDS011;47773;53.174;6.614;2022-08-19T13:14:28;12.25;;;8.82;;
61840;SDS011;47773;53.174;6.614;2022-08-19T13:16:56;15.80;;;9.02;;
61840;SDS011;47773;53.174;6.614;2022-08-19T13:19:22;14.10;;;8.00;;
61840;SDS011;47773;53.174;6.614;2022-08-19T13:21:49;19.30;;;8.90;;
61840;SDS011;47773;53.174;6.614;2022-08-19T13:24:16;15.73;;;9.77;;
61840;SDS011;47773;53.174;6.614;2022-08-19T13:26:42;15.88;;;9.38;;
61840;SDS011;47773;53.174;6.614;2022-08-19T13:29:07;13.25;;;9.38;;
61840;SDS011;47773;53.174;6.614;2022-08-19T13:31:53;14.73;;;8.30;;
61840;SDS011;47773;53.174;6.614;2022-08-19T13:34:37;17.40;;;10.02;;
61840;SDS011;47773;53.174;6.614;2022-08-19T13:37:04;17.85;;;12.23;;
61840;SDS011;47773;53.174;6.614;2022-08-19T13:39:32;18.30;;;10.88;;
61840;SDS011;47773;53.174;6.614;2022-08-19T13:41:59;22.38;;;11.77;;
61840;SDS011;47773;53.174;6.614;2022-08-19T13:44:26;17.92;;;10.45;;
61840;SDS011;47773;53.174;6.614;2022-08-19T13:46:54;15.77;;;10.77;;
61840;SDS011;47773;53.174;6.614;2022-08-19T13:49:24;16.58;;;10.25;;
61840;SDS011;47773;53.174;6.614;2022-08-19T13:51:50;20.02;;;11.68;;
61840;SDS011;47773;53.174;6.614;2022-08-19T13:54:15;17.13;;;9.95;;
61840;SDS011;47773;53.174;6.614;2022-08-19T13:56:42;14.85;;;8.90;;
61840;SDS011;47773;53.174;6.614;2022-08-19T13:59:08;14.48;;;7.60;;
61840;SDS011;47773;53.174;6.614;2022-08-19T14:01:34;12.40;;;6.53;;
61840;SDS011;47773;53.174;6.614;2022-08-19T14:04:01;12.82;;;7.20;;
61840;SDS011;47773;53.174;6.614;2022-08-19T14:06:27;9.43;;;6.53;;
61840;SDS011;47773;53.174;6.614;2022-08-19T14:08:52;10.73;;;6.35;;
61840;SDS011;47773;53.174;6.614;2022-08-19T14:11:18;12.98;;;7.40;;
61840;SDS011;47773;53.174;6.614;2022-08-19T14:13:44;12.52;;;6.93;;
61840;SDS011;47773;53.174;6.614;2022-08-19T14:16:11;12.70;;;7.90;;
61840;SDS011;47773;53.174;6.614;2022-08-19T14:18:38;11.20;;;6.22;;
61840;SDS011;47773;53.174;6.614;2022-08-19T14:21:04;14.15;;;7.35;;
61840;SDS011;47773;53.174;6.614;2022-08-19T14:23:31;12.23;;;7.22;;
61840;SDS011;47773;53.174;6.614;2022-08-19T14:26:08;11.88;;;7.20;;
61840;SDS011;47773;53.174;6.614;2022-08-19T14:28:36;15.82;;;7.60;;
61840;SDS011;47773;53.174;6.614;2022-08-19T14:31:04;11.75;;;6.90;;
61840;SDS011;47773;53.174;6.614;2022-08-19T14:33:30;14.05;;;8.95;;
61840;SDS011;47773;53.174;6.614;2022-08-19T14:35:57;17.95;;;8.57;;
61840;SDS011;47773;53.174;6.614;2022-08-19T14:38:22;13.68;;;8.20;;
61840;SDS011;47773;53.174;6.614;2022-08-19T14:40:48;15.13;;;8.50;;
61840;SDS011;47773;53.174;6.614;2022-08-19T14:43:14;17.17;;;9.15;;
61840;SDS011;47773;53.174;6.614;2022-08-19T14:45:40;15.98;;;9.02;;
61840;SDS011;47773;53.174;6.614;2022-08-19T14:48:06;17.55;;;9.00;;
61840;SDS011;47773;53.174;6.614;2022-08-19T14:50:32;19.83;;;9.68;;
61840;SDS011;47773;53.174;6.614;2022-08-19T14:53:00;14.38;;;8.82;;
61840;SDS011;47773;53.174;6.614;2022-08-19T14:55:29;16.70;;;9.60;;
61840;SDS011;47773;53.174;6.614;2022-08-19T14:57:55;17.95;;;8.30;;
61840;SDS011;47773;53.174;6.614;2022-08-19T15:00:21;17.80;;;9.40;;
61840;SDS011;47773;53.174;6.614;2022-08-19T15:02:48;20.35;;;9.95;;